Aérodrome :
LOGIN :

S'inscrire | Disclaimer

   EN    FR    IT 

 










Légende :    VFR   VFR Marginal   IFR   IFR Intensif   IFR Très Intensif
Visi : 
Plafond : 
>= 8 km
>= 3000ft
5 à 8 km
1000 à 3000 ft
1500m à 5 km
500 à 1000 ft
800 à 1500m
200 à 500 ft
< 800m
< 200 ft
Symboles :   Orages  Brouillard  Fortes neiges  Fortes précipitations  Vent > 20 kt
SIGMETs :   Divers  Orages  Givrage  Turbulence  Onde Orograph.  Cendres Volcan.






- Altitude de l'aérodrome : 353 ft
- Code IATA : CND


LRCK - Constanta

DERNIER METAR :
  • 250200Z 29008KT CAVOK M01/M02 Q1028 NOSIG

METARs EXPIRÉS :
  • 250130Z 29007KT CAVOK M01/M03 Q1028 NOSIG
  • 250100Z 29007KT CAVOK M00/M02 Q1028 NOSIG
  • 250030Z 29007KT CAVOK 00/M02 Q1028 NOSIG
  • 250000Z 29007KT CAVOK 00/M02 Q1028 NOSIG
  • 242330Z 29008KT CAVOK 00/M02 Q1028 NOSIG

TAF TAF LRCK
Valide du 25 à 00h jusqu'au 26 à 00h UTC


242300Z 2500/2600 28008KT CAVOK
PROB30
TEMPO 2503/2506 3000 BR



MET'MAP, la Météo Aéronautique d'un coup d'oeil ! - Copyright ORBIFLY Décembre 2007 - Disclaimer

ORBIFLY MET'MAP TEAM :

Programmation & Développement : Alexandra Zaïnal
Sur une idée originale de : Baudouin d'Aumeries
Assistance à la programmation : Marc-Olivier Méhu
Soutien technique & logistique : Manuel Goepfert

Contact : metmap@orbifly.com




SOURCES & CREDITS :

   NOAA